Time;durP1;ratioP1;P1;durP2;ratioP2;P2;SDS_P1;SDS_P2;PMS_P1;PMS_P2;Temp;Humidity;BMP_temperature;BMP_pressure;BME280_temperature;BME280_humidity;BME280_pressure;Samples;Min_cycle;Max_cycle;Signal;HPM_P1;HPM_P2
2023/08/30 00:00:47;;;;;;;0.13;0.13;;;;;;;10.18;100.00;100741.81;5116548;28;20034;-50
2023/08/30 00:03:13;;;;;;;0.10;0.10;;;;;;;10.08;100.00;100742.38;5116212;28;20035;-52
2023/08/30 00:05:40;;;;;;;0.10;0.10;;;;;;;10.06;100.00;100744.03;5116095;28;20439;-52
2023/08/30 00:08:05;;;;;;;0.20;0.20;;;;;;;10.05;100.00;100732.84;5116460;28;20060;-50
2023/08/30 00:10:31;;;;;;;0.10;0.10;;;;;;;10.00;100.00;100739.56;5116244;28;20055;-52
2023/08/30 00:12:56;;;;;;;0.13;0.13;;;;;;;10.02;100.00;100731.91;5115869;28;20478;-51
2023/08/30 00:15:21;;;;;;;0.20;0.20;;;;;;;10.13;100.00;100735.66;5116184;28;20059;-52
2023/08/30 00:17:47;;;;;;;0.20;0.20;;;;;;;10.09;100.00;100726.09;5116381;28;20020;-51
2023/08/30 00:20:13;;;;;;;0.20;0.20;;;;;;;9.98;100.00;100728.38;5115331;28;20485;-51
2023/08/30 00:22:39;;;;;;;0.10;0.10;;;;;;;9.95;100.00;100727.41;5116530;28;20099;-51
2023/08/30 00:25:05;;;;;;;0.20;0.20;;;;;;;10.00;100.00;100724.13;5115867;28;20020;-51
2023/08/30 00:27:30;;;;;;;0.20;0.20;;;;;;;9.88;100.00;100728.91;5115853;28;20045;-50
2023/08/30 00:29:55;;;;;;;0.20;0.20;;;;;;;9.83;100.00;100730.47;5116178;28;20026;-52
2023/08/30 00:32:21;;;;;;;0.20;0.20;;;;;;;9.79;100.00;100726.06;5115295;28;20060;-52
2023/08/30 00:34:50;;;;;;;0.15;0.15;;;;;;;9.71;100.00;100723.25;5115962;28;20024;-52
2023/08/30 00:37:15;;;;;;;0.20;0.20;;;;;;;9.71;100.00;100720.69;5115767;28;20482;-51
2023/08/30 00:39:40;;;;;;;0.10;0.10;;;;;;;9.73;100.00;100719.00;5115280;28;20135;-52
2023/08/30 00:42:07;;;;;;;0.20;0.20;;;;;;;9.63;100.00;100709.25;5116035;28;20023;-52
2023/08/30 00:44:33;;;;;;;0.20;0.20;;;;;;;9.69;100.00;100714.59;5115536;28;20059;-52
2023/08/30 00:47:00;;;;;;;0.20;0.20;;;;;;;9.61;100.00;100708.34;5115373;28;20077;-49
2023/08/30 00:49:25;;;;;;;0.20;0.20;;;;;;;9.60;100.00;100701.47;5115352;28;20030;-50
2023/08/30 00:51:52;;;;;;;0.10;0.10;;;;;;;9.56;100.00;100700.47;5115343;28;20478;-52
2023/08/30 00:54:17;;;;;;;0.20;0.20;;;;;;;9.50;100.00;100698.59;5114627;28;20035;-52
2023/08/30 00:56:43;;;;;;;0.20;0.20;;;;;;;9.56;100.00;100695.34;5115636;28;20024;-52
2023/08/30 00:59:09;;;;;;;0.20;0.20;;;;;;;9.52;100.00;100693.50;5115547;28;20111;-51
2023/08/30 01:01:35;;;;;;;0.20;0.20;;;;;;;9.50;100.00;100696.03;5114807;28;20459;-49
2023/08/30 01:04:00;;;;;;;0.10;0.10;;;;;;;9.52;100.00;100693.50;5115466;28;20118;-52
2023/08/30 01:06:26;;;;;;;0.10;0.10;;;;;;;9.50;100.00;100693.44;5115253;27;20043;-52
2023/08/30 01:08:52;;;;;;;0.20;0.20;;;;;;;9.55;100.00;100694.47;5114721;28;20027;-50
2023/08/30 01:11:32;;;;;;;0.20;0.20;;;;;;;9.48;100.00;100689.94;5115053;28;20024;-49
2023/08/30 01:14:50;;;;;;;0.20;0.20;;;;;;;9.50;100.00;100695.13;5115370;28;20101;-50
2023/08/30 01:17:17;;;;;;;0.20;0.20;;;;;;;9.38;100.00;100690.47;5091061;28;20036;-51
2023/08/30 01:19:51;;;;;;;0.20;0.20;;;;;;;9.38;100.00;100682.75;5115312;28;20172;-52
2023/08/30 01:22:31;;;;;;;0.20;0.20;;;;;;;9.29;100.00;100685.03;5114383;28;20098;-51
2023/08/30 01:25:22;;;;;;;0.10;0.10;;;;;;;9.37;100.00;100694.75;5115170;28;20028;-51
2023/08/30 01:27:49;;;;;;;0.10;0.10;;;;;;;9.41;100.00;100684.56;5115119;28;20117;-52
2023/08/30 01:30:17;;;;;;;0.10;0.10;;;;;;;9.32;100.00;100683.44;5114067;28;20027;-50
2023/08/30 01:32:43;;;;;;;0.20;0.20;;;;;;;9.12;100.00;100672.50;5115259;28;20019;-51
2023/08/30 01:35:09;;;;;;;0.20;0.20;;;;;;;9.06;100.00;100667.16;5114876;28;20482;-52
2023/08/30 01:37:36;;;;;;;0.20;0.20;;;;;;;9.04;100.00;100669.69;5113812;28;20475;-52
2023/08/30 01:40:04;;;;;;;0.20;0.20;;;;;;;9.11;100.00;100683.63;5114800;28;20039;-51
2023/08/30 01:42:30;;;;;;;0.10;0.10;;;;;;;9.21;100.00;100677.09;5113798;28;20030;-52
2023/08/30 01:45:00;;;;;;;0.13;0.13;;;;;;;9.27;100.00;100686.69;5114663;28;20356;-48
2023/08/30 01:47:27;;;;;;;0.20;0.20;;;;;;;9.28;100.00;100684.16;5114814;28;20027;-50
2023/08/30 01:49:54;;;;;;;0.10;0.10;;;;;;;9.23;100.00;100681.44;5113991;28;20038;-52
2023/08/30 01:52:20;;;;;;;0.20;0.20;;;;;;;9.21;100.00;100677.94;5114363;28;20130;-52
2023/08/30 01:54:47;;;;;;;0.20;0.20;;;;;;;9.28;100.00;100680.72;5114523;28;20600;-52
2023/08/30 01:57:13;;;;;;;0.20;0.20;;;;;;;9.29;100.00;100674.75;5113469;28;20039;-50
2023/08/30 01:59:38;;;;;;;0.15;0.15;;;;;;;9.33;100.00;100672.31;5114301;28;20031;-51
2023/08/30 02:02:04;;;;;;;0.13;0.13;;;;;;;9.37;100.00;100668.16;5114625;28;20035;-52
2023/08/30 02:04:31;;;;;;;0.10;0.10;;;;;;;9.22;100.00;100674.56;5113463;28;20098;-51
2023/08/30 02:07:00;;;;;;;;;;;;;;;9.34;100.00;100683.50;5114822;28;20026;-51
2023/08/30 02:09:39;;;;;;;0.20;0.20;;;;;;;9.23;100.00;100671.16;5113905;28;20341;-52
2023/08/30 02:12:09;;;;;;;0.10;0.10;;;;;;;9.25;100.00;100675.50;5113468;28;20031;-51
2023/08/30 02:14:36;;;;;;;0.10;0.10;;;;;;;9.08;100.00;100678.38;5113757;28;20019;-52
2023/08/30 02:17:02;;;;;;;0.17;0.17;;;;;;;9.25;100.00;100667.78;5114419;28;20035;-50
2023/08/30 02:19:28;;;;;;;0.10;0.10;;;;;;;9.13;100.00;100663.97;5113069;28;20024;-51
2023/08/30 02:21:53;;;;;;;0.20;0.20;;;;;;;9.17;100.00;100659.81;5114083;28;20027;-50
2023/08/30 02:24:19;;;;;;;0.20;0.20;;;;;;;9.05;100.00;100660.25;5113784;28;20475;-52
2023/08/30 02:26:44;;;;;;;0.20;0.20;;;;;;;9.03;100.00;100656.78;5113157;28;20032;-51
2023/08/30 02:29:09;;;;;;;0.20;0.20;;;;;;;8.99;100.00;100662.66;5113832;28;20064;-51
2023/08/30 02:31:35;;;;;;;0.20;0.20;;;;;;;9.11;100.00;100663.03;5113722;28;20024;-52
2023/08/30 02:34:02;;;;;;;0.20;0.20;;;;;;;8.99;100.00;100660.94;5112893;28;20020;-52
2023/08/30 02:36:27;;;;;;;0.20;0.20;;;;;;;9.01;100.00;100653.28;5113598;28;20108;-51
2023/08/30 02:38:53;;;;;;;0.10;0.10;;;;;;;9.15;100.00;100657.16;5113127;27;20051;-52
2023/08/30 02:41:18;;;;;;;0.20;0.20;;;;;;;9.12;100.00;100651.94;5113228;28;20378;-50
2023/08/30 02:43:44;;;;;;;0.20;0.20;;;;;;;9.04;100.00;100653.41;5113839;28;20024;-49
2023/08/30 02:46:09;;;;;;;0.10;0.10;;;;;;;9.04;100.00;100654.25;5113021;28;20023;-51
2023/08/30 02:48:34;;;;;;;0.20;0.20;;;;;;;9.06;100.00;100644.91;5113551;28;20020;-51
2023/08/30 02:51:00;;;;;;;0.13;0.13;;;;;;;9.08;100.00;100639.81;5113766;28;20451;-51
2023/08/30 02:53:25;;;;;;;0.30;0.30;;;;;;;9.11;100.00;100636.47;5112558;28;20490;-52
2023/08/30 02:55:50;;;;;;;0.20;0.20;;;;;;;9.20;100.00;100634.19;5113268;28;20906;-50
2023/08/30 02:58:16;;;;;;;0.20;0.20;;;;;;;9.21;100.00;100625.66;5113195;28;20427;-51
2023/08/30 03:00:41;;;;;;;0.20;0.20;;;;;;;9.21;100.00;100631.66;5112635;28;20027;-50
2023/08/30 03:03:06;;;;;;;0.20;0.20;;;;;;;9.26;100.00;100628.34;5113355;28;20356;-52
2023/08/30 03:05:32;;;;;;;0.20;0.20;;;;;;;9.22;100.00;100628.28;5113161;28;20534;-49
2023/08/30 03:07:57;;;;;;;0.20;0.20;;;;;;;9.19;100.00;100628.19;5112462;28;20019;-52
2023/08/30 03:10:23;;;;;;;0.10;0.10;;;;;;;9.13;100.00;100617.69;5112921;28;20111;-51
2023/08/30 03:12:48;;;;;;;0.20;0.20;;;;;;;9.12;100.00;100621.09;5113208;28;20098;-52
2023/08/30 03:15:13;;;;;;;0.10;0.10;;;;;;;9.11;100.00;100621.91;5112434;28;20032;-50
2023/08/30 03:17:38;;;;;;;0.10;0.10;;;;;;;9.07;100.00;100626.06;5113410;28;20032;-50
2023/08/30 03:20:05;;;;;;;0.10;0.10;;;;;;;9.08;100.00;100626.97;5113283;28;20034;-52
2023/08/30 03:22:33;;;;;;;0.10;0.10;;;;;;;9.18;100.00;100626.44;5112156;28;20356;-52
2023/08/30 03:24:59;;;;;;;0.20;0.20;;;;;;;9.25;100.00;100629.22;5113124;28;20065;-52
2023/08/30 03:27:24;;;;;;;0.20;0.20;;;;;;;9.32;100.00;100623.41;5112879;28;20024;-52
2023/08/30 03:29:50;;;;;;;0.20;0.20;;;;;;;9.43;100.00;100616.91;5112330;28;20464;-51
2023/08/30 03:32:17;;;;;;;0.20;0.20;;;;;;;9.47;100.00;100607.59;5112750;28;20028;-52
2023/08/30 03:34:49;;;;;;;0.20;0.20;;;;;;;9.53;100.00;100602.63;5113151;28;20032;-52
2023/08/30 03:37:15;;;;;;;0.10;0.10;;;;;;;9.51;100.00;100599.97;5112018;28;20069;-52
2023/08/30 03:39:40;;;;;;;0.20;0.20;;;;;;;9.48;100.00;100602.47;5113141;28;20055;-52
2023/08/30 03:42:06;;;;;;;0.20;0.20;;;;;;;9.49;100.00;100590.47;5112148;28;20058;-51
2023/08/30 03:44:31;;;;;;;0.20;0.20;;;;;;;9.49;100.00;100587.91;5112643;28;20035;-51
2023/08/30 03:46:56;;;;;;;0.20;0.20;;;;;;;9.56;100.00;100572.69;5113188;28;20027;-52
2023/08/30 03:49:22;;;;;;;0.15;0.15;;;;;;;9.58;100.00;100570.19;5111930;28;20031;-51
2023/08/30 03:51:48;;;;;;;0.20;0.20;;;;;;;9.58;100.00;100561.59;5113029;28;20020;-52
2023/08/30 03:54:16;;;;;;;0.20;0.20;;;;;;;9.62;100.00;100560.84;5112631;28;20055;-52
2023/08/30 03:56:45;;;;;;;0.20;0.20;;;;;;;9.57;100.00;100558.16;5112370;28;20047;-50
2023/08/30 03:59:11;;;;;;;0.17;0.17;;;;;;;9.49;100.00;100549.31;5112728;28;20027;-50
2023/08/30 04:01:37;;;;;;;0.15;0.15;;;;;;;9.61;100.00;100549.69;5112927;28;20031;-51
2023/08/30 04:04:02;;;;;;;0.20;0.20;;;;;;;9.67;100.00;100541.25;5112201;28;20028;-50
2023/08/30 04:06:28;;;;;;;0.20;0.20;;;;;;;9.56;100.00;100531.53;5112539;28;20023;-51
2023/08/30 04:08:53;;;;;;;0.20;0.20;;;;;;;9.58;100.00;100531.59;5112751;28;20020;-51
2023/08/30 04:11:18;;;;;;;0.20;0.20;;;;;;;9.81;100.00;100521.94;5111858;28;20034;-52
2023/08/30 04:13:44;;;;;;;0.20;0.20;;;;;;;9.88;100.00;100523.84;5112982;28;20062;-49
2023/08/30 04:16:09;;;;;;;0.20;0.20;;;;;;;9.77;100.00;100519.25;5112812;28;20414;-51
2023/08/30 04:18:34;;;;;;;0.10;0.10;;;;;;;9.90;100.00;100531.59;5111776;28;20020;-51
2023/08/30 04:21:02;;;;;;;0.10;0.10;;;;;;;9.72;100.00;100529.38;5112705;28;20038;-52
2023/08/30 04:23:27;;;;;;;0.10;0.10;;;;;;;9.67;100.00;100538.69;5112554;28;20094;-51
2023/08/30 04:25:52;;;;;;;0.20;0.20;;;;;;;9.74;100.00;100522.59;5113663;28;20355;-52
2023/08/30 04:28:18;;;;;;;0.15;0.15;;;;;;;9.78;100.00;100524.41;5116130;28;20027;-51
2023/08/30 04:30:43;;;;;;;0.20;0.20;;;;;;;9.67;100.00;100533.53;5116379;28;20016;-49
2023/08/30 04:33:08;;;;;;;0.20;0.20;;;;;;;9.83;100.00;100530.56;5115438;28;20094;-52
2023/08/30 04:35:34;;;;;;;0.10;0.10;;;;;;;9.95;100.00;100524.00;5115824;28;20382;-51
2023/08/30 04:38:01;;;;;;;0.15;0.15;;;;;;;10.02;100.00;100515.63;5116024;28;20455;-51
2023/08/30 04:40:26;;;;;;;0.10;0.10;;;;;;;10.15;100.00;100522.84;5114849;28;20023;-52
2023/08/30 04:42:51;;;;;;;0.10;0.10;;;;;;;10.18;100.00;100522.91;5115884;28;20134;-51
2023/08/30 04:45:17;;;;;;;0.10;0.10;;;;;;;10.24;100.00;100523.91;5115583;28;20028;-49
2023/08/30 04:47:45;;;;;;;0.20;0.20;;;;;;;10.28;100.00;100518.00;5115375;28;20551;-51
2023/08/30 04:50:11;;;;;;;0.20;0.20;;;;;;;10.34;100.00;100513.00;5115832;28;20028;-51
2023/08/30 04:52:36;;;;;;;0.20;0.20;;;;;;;10.43;100.00;100509.81;5115287;28;20099;-52
2023/08/30 04:55:01;;;;;;;0.25;0.25;;;;;;;10.42;100.00;100508.97;5115791;28;20177;-49
2023/08/30 04:57:27;;;;;;;0.20;0.20;;;;;;;10.52;100.00;100502.31;5115566;28;20160;-46
2023/08/30 04:59:52;;;;;;;0.20;0.20;;;;;;;10.59;100.00;100499.06;5115100;28;20507;-50
2023/08/30 05:02:17;;;;;;;0.20;0.20;;;;;;;10.66;100.00;100498.34;5115377;28;20095;-51
2023/08/30 05:04:43;;;;;;;0.10;0.10;;;;;;;10.69;100.00;100492.38;5115614;28;20437;-49
2023/08/30 05:07:08;;;;;;;0.20;0.20;;;;;;;10.68;100.00;100494.13;5114722;28;20043;-50
2023/08/30 05:09:34;;;;;;;0.15;0.15;;;;;;;10.69;100.00;100484.66;5115098;28;20104;-52
2023/08/30 05:12:00;;;;;;;0.20;0.20;;;;;;;10.82;100.00;100481.53;5115643;28;20030;-50
2023/08/30 05:14:26;;;;;;;0.20;0.20;;;;;;;10.91;100.00;100485.16;5114480;28;20024;-54
2023/08/30 05:16:52;;;;;;;0.20;0.20;;;;;;;10.93;100.00;100479.19;5115457;28;20098;-51
2023/08/30 05:19:17;;;;;;;0.10;0.10;;;;;;;11.00;100.00;100477.63;5114964;28;20156;-54
2023/08/30 05:21:43;;;;;;;0.10;0.10;;;;;;;11.08;100.00;100486.41;5114479;28;20045;-47
2023/08/30 05:24:08;;;;;;;0.20;0.20;;;;;;;11.14;100.00;100478.81;5115181;28;20463;-52
2023/08/30 05:26:34;;;;;;;0.20;0.20;;;;;;;11.19;100.00;100482.38;5115143;28;20023;-52
2023/08/30 05:28:59;;;;;;;0.15;0.15;;;;;;;11.27;100.00;100481.63;5114475;28;20020;-50
2023/08/30 05:31:24;;;;;;;0.20;0.20;;;;;;;11.34;100.00;100481.78;5114809;28;20438;-52
2023/08/30 05:33:50;;;;;;;0.10;0.10;;;;;;;11.40;100.00;100482.75;5114996;28;20043;-48
2023/08/30 05:36:15;;;;;;;0.20;0.20;;;;;;;11.47;100.00;100476.88;5113514;28;20133;-51
2023/08/30 05:38:41;;;;;;;0.10;0.10;;;;;;;11.51;100.00;100479.53;5115020;28;20379;-47
2023/08/30 05:41:07;;;;;;;0.20;0.20;;;;;;;11.58;100.00;100474.50;5114952;28;20064;-48
2023/08/30 05:43:32;;;;;;;0.10;0.10;;;;;;;11.65;100.00;100471.22;5113843;28;20150;-51
2023/08/30 05:46:02;;;;;;;0.20;0.20;;;;;;;11.70;100.00;100469.59;5114773;28;20020;-47
2023/08/30 05:48:27;;;;;;;0.10;0.10;;;;;;;11.77;100.00;100475.75;5114495;27;20065;-50
2023/08/30 05:50:52;;;;;;;0.10;0.10;;;;;;;11.82;100.00;100462.06;5113970;28;20043;-48
2023/08/30 05:53:18;;;;;;;0.10;0.10;;;;;;;11.86;100.00;100460.41;5114499;28;20362;-46
2023/08/30 05:55:43;;;;;;;0.10;0.10;;;;;;;11.93;100.00;100458.81;5113698;28;20496;-47
2023/08/30 05:58:08;;;;;;;0.20;0.20;;;;;;;12.01;100.00;100457.28;5114641;28;20471;-51
2023/08/30 06:00:34;;;;;;;0.20;0.20;;;;;;;12.07;100.00;100459.97;5114098;28;20035;-51
2023/08/30 06:02:59;;;;;;;0.10;0.10;;;;;;;12.14;100.00;100455.78;5113689;28;20022;-52
2023/08/30 06:05:24;;;;;;;0.20;0.20;;;;;;;12.21;100.00;100462.75;5113868;28;20466;-50
2023/08/30 06:07:50;;;;;;;0.10;0.10;;;;;;;12.25;100.00;100453.34;5114458;28;20024;-51
2023/08/30 06:10:15;;;;;;;0.20;0.20;;;;;;;12.31;100.00;100458.63;5113408;27;20023;-51
2023/08/30 06:12:40;;;;;;;0.13;0.13;;;;;;;12.37;100.00;100458.72;5114394;28;20020;-49
2023/08/30 06:15:06;;;;;;;0.20;0.20;;;;;;;12.42;100.00;100461.38;5114314;28;20091;-47
2023/08/30 06:17:31;;;;;;;0.10;0.10;;;;;;;12.47;100.00;100454.56;5113118;28;20027;-52
2023/08/30 06:19:57;;;;;;;0.17;0.17;;;;;;;12.51;100.00;100453.75;5113942;28;20020;-51
2023/08/30 06:22:22;;;;;;;0.20;0.20;;;;;;;12.55;100.00;100452.09;5113771;28;20058;-51
2023/08/30 06:24:48;;;;;;;0.10;0.10;;;;;;;12.55;100.00;100452.09;5113221;28;20024;-51
2023/08/30 06:27:13;;;;;;;0.20;0.20;;;;;;;12.57;100.00;100448.69;5113781;28;20027;-52
2023/08/30 06:29:38;;;;;;;0.10;0.10;;;;;;;12.62;100.00;100443.59;5113935;28;20038;-51
2023/08/30 06:32:04;;;;;;;0.10;0.10;;;;;;;12.65;100.00;100453.97;5112994;28;20019;-47
2023/08/30 06:34:30;;;;;;;0.10;0.10;;;;;;;12.63;100.00;100458.25;5113503;28;20413;-52
2023/08/30 06:36:55;;;;;;;0.10;0.10;;;;;;;12.63;100.00;100455.69;5113701;28;20108;-51
2023/08/30 06:39:20;;;;;;;0.10;0.10;;;;;;;12.63;100.00;100458.25;5112772;28;20120;-49
2023/08/30 06:41:46;;;;;;;0.10;0.10;;;;;;;12.65;100.00;100459.13;5113856;28;20098;-49
2023/08/30 06:44:11;;;;;;;0.10;0.10;;;;;;;12.64;100.00;100468.63;5113725;28;20375;-49
2023/08/30 06:46:37;;;;;;;0.10;0.10;;;;;;;12.64;100.00;100463.44;5112615;28;20067;-48
2023/08/30 06:49:03;;;;;;;0.10;0.10;;;;;;;12.67;100.00;100473.81;5112909;28;20076;-49
2023/08/30 06:51:28;;;;;;;0.15;0.15;;;;;;;12.71;100.00;100469.56;5113383;28;20062;-50
2023/08/30 06:53:55;;;;;;;0.10;0.10;;;;;;;12.67;100.00;100468.66;5112692;28;20020;-53
2023/08/30 06:56:20;;;;;;;0.10;0.10;;;;;;;12.67;100.00;100466.06;5113390;28;20023;-53
2023/08/30 06:58:46;;;;;;;0.10;0.10;;;;;;;12.65;100.00;100479.81;5113517;28;20023;-52
2023/08/30 07:01:12;;;;;;;0.10;0.10;;;;;;;12.63;100.00;100476.38;5112734;28;20114;-52
2023/08/30 07:03:37;;;;;;;0.10;0.10;;;;;;;12.54;100.00;100469.34;5113302;28;20023;-51
2023/08/30 07:06:02;;;;;;;0.20;0.20;;;;;;;12.49;100.00;100463.22;5112523;28;20020;-51
2023/08/30 07:08:28;;;;;;;0.13;0.13;;;;;;;12.44;100.00;100465.72;5113215;28;20019;-52
2023/08/30 07:10:53;;;;;;;0.13;0.13;;;;;;;12.41;100.00;100450.19;5113418;28;20070;-52
2023/08/30 07:13:19;;;;;;;0.10;0.10;;;;;;;12.35;100.00;100439.75;5112194;28;20043;-52
2023/08/30 07:15:44;;;;;;;0.10;0.10;;;;;;;12.29;100.00;100434.47;5113219;28;20023;-52
2023/08/30 07:18:09;;;;;;;0.10;0.10;;;;;;;12.25;100.00;100432.69;5113099;28;20023;-52
2023/08/30 07:20:36;;;;;;;0.13;0.13;;;;;;;12.19;100.00;100439.50;5112109;28;20032;-52
2023/08/30 07:23:02;;;;;;;0.20;0.20;;;;;;;12.15;100.00;100422.22;5113456;28;20094;-52
2023/08/30 07:25:30;;;;;;;0.10;0.10;;;;;;;12.12;100.00;100419.59;5112836;28;20012;-51
2023/08/30 07:27:55;;;;;;;;;;;;;;;12.23;100.00;100413.72;5112739;28;20073;-52
2023/08/30 07:30:21;;;;;;;0.20;0.20;;;;;;;12.15;100.00;100417.03;5112741;28;19911;-51
2023/08/30 07:32:47;;;;;;;0.20;0.20;;;;;;;12.12;100.00;100413.53;5112986;28;20274;-51
2023/08/30 07:35:12;;;;;;;0.20;0.20;;;;;;;12.11;100.00;100419.53;5111971;28;20030;-51
2023/08/30 07:37:38;;;;;;;0.10;0.10;;;;;;;12.11;100.00;100411.78;5113220;28;20019;-48
2023/08/30 07:40:06;;;;;;;0.20;0.20;;;;;;;12.08;100.00;100410.03;5113109;28;20032;-49
2023/08/30 07:42:32;;;;;;;0.17;0.17;;;;;;;12.08;100.00;100399.69;5112005;28;20039;-49
2023/08/30 07:44:57;;;;;;;0.10;0.10;;;;;;;12.13;100.00;100408.38;5113066;28;20024;-51
2023/08/30 07:47:22;;;;;;;0.20;0.20;;;;;;;12.13;100.00;100408.38;5112625;28;20517;-50
2023/08/30 07:49:48;;;;;;;0.10;0.10;;;;;;;12.15;100.00;100396.38;5112182;28;20106;-51
2023/08/30 07:52:14;;;;;;;0.20;0.20;;;;;;;12.15;100.00;100396.38;5112491;28;20032;-50
2023/08/30 07:54:39;;;;;;;0.17;0.17;;;;;;;12.17;100.00;100392.13;5112738;28;20123;-50
2023/08/30 07:57:05;;;;;;;0.20;0.20;;;;;;;12.18;100.00;100391.25;5112258;28;20043;-49
2023/08/30 07:59:33;;;;;;;0.10;0.10;;;;;;;12.19;100.00;100393.00;5113958;28;20016;-50
2023/08/30 08:01:59;;;;;;;0.10;0.10;;;;;;;12.27;100.00;100387.09;5116671;28;20019;-49
2023/08/30 08:04:24;;;;;;;0.20;0.20;;;;;;;12.33;100.00;100392.31;5115861;28;20023;-45
2023/08/30 08:06:49;;;;;;;0.20;0.20;;;;;;;12.30;100.00;100393.16;5116833;28;20107;-50
2023/08/30 08:09:15;;;;;;;0.10;0.10;;;;;;;12.34;100.00;100392.38;5116248;28;20033;-47
2023/08/30 08:11:43;;;;;;;0.20;0.20;;;;;;;12.34;100.00;100391.47;5116365;28;20094;-50
2023/08/30 08:14:08;;;;;;;;;;;;;;;12.44;100.00;100393.34;5116921;28;20042;-49
2023/08/30 08:16:34;;;;;;;0.13;0.13;;;;;;;12.37;100.00;100388.97;5115400;28;19919;-49
2023/08/30 08:19:01;;;;;;;0.10;0.10;;;;;;;12.36;100.00;100392.38;5116534;28;20038;-49
2023/08/30 08:21:27;;;;;;;0.17;0.17;;;;;;;12.34;100.00;100389.78;5116123;27;20050;-45
2023/08/30 08:23:52;;;;;;;0.10;0.10;;;;;;;12.34;100.00;100386.31;5115796;28;20019;-50
2023/08/30 08:26:18;;;;;;;0.10;0.10;;;;;;;12.32;100.00;100388.03;5116054;28;20025;-48
2023/08/30 08:28:44;;;;;;;0.10;0.10;;;;;;;12.36;100.00;100389.78;5116268;28;20023;-46
2023/08/30 08:31:09;;;;;;;0.10;0.10;;;;;;;12.43;100.00;100388.16;5115457;28;20019;-50
2023/08/30 08:33:35;;;;;;;0.10;0.10;;;;;;;12.47;100.00;100383.06;5116003;28;20016;-46
2023/08/30 08:36:01;;;;;;;0.10;0.10;;;;;;;12.49;100.00;100383.94;5116305;28;20027;-50
2023/08/30 08:38:26;;;;;;;0.10;0.10;;;;;;;12.52;100.00;100390.88;5115129;28;20022;-48
2023/08/30 08:41:00;;;;;;;0.10;0.10;;;;;;;12.51;100.00;100391.72;5115942;28;20035;-46
2023/08/30 08:43:27;;;;;;;0.20;0.20;;;;;;;12.55;100.00;100387.47;5115675;28;20022;-49
2023/08/30 08:45:58;;;;;;;0.10;0.10;;;;;;;12.57;100.00;100388.38;5114974;28;20152;-49
2023/08/30 08:48:25;;;;;;;0.10;0.10;;;;;;;12.55;100.00;100390.06;5115836;28;20023;-48
2023/08/30 08:50:50;;;;;;;0.10;0.10;;;;;;;12.53;100.00;100374.53;5115917;28;20111;-48
2023/08/30 08:53:15;;;;;;;0.20;0.20;;;;;;;12.56;100.00;100387.47;5114882;28;20522;-50
2023/08/30 08:55:42;;;;;;;0.10;0.10;;;;;;;12.60;100.00;100388.41;5115565;28;20039;-44
2023/08/30 08:58:07;;;;;;;0.10;0.10;;;;;;;12.59;100.00;100389.25;5115602;28;20027;-43
2023/08/30 09:00:33;;;;;;;0.10;0.10;;;;;;;12.62;100.00;100391.88;5114580;28;20039;-49
2023/08/30 09:03:00;;;;;;;0.10;0.10;;;;;;;12.62;100.00;100386.72;5115545;28;20349;-45
2023/08/30 09:05:27;;;;;;;0.10;0.10;;;;;;;12.65;100.00;100379.00;5115363;28;20114;-49
2023/08/30 09:07:54;;;;;;;0.20;0.20;;;;;;;12.76;100.00;100374.84;5115080;28;20031;-48
2023/08/30 09:10:21;;;;;;;0.10;0.10;;;;;;;12.97;100.00;100376.81;5114977;28;20387;-45
2023/08/30 09:12:47;;;;;;;0.20;0.20;;;;;;;13.18;100.00;100378.81;5114312;28;20531;-49
2023/08/30 09:15:13;;;;;;;0.10;0.10;;;;;;;13.31;100.00;100384.09;5115302;28;20033;-50
2023/08/30 09:17:39;;;;;;;0.10;0.10;;;;;;;13.47;100.00;100373.09;5115499;28;20016;-48
2023/08/30 09:20:12;;;;;;;0.10;0.10;;;;;;;13.75;100.00;100378.53;5114417;28;20035;-49
2023/08/30 09:22:42;;;;;;;0.20;0.20;;;;;;;13.85;100.00;100370.84;5115214;28;20023;-49
2023/08/30 09:25:10;;;;;;;0.10;0.10;;;;;;;14.14;100.00;100366.75;5115168;28;20038;-45
2023/08/30 09:27:36;;;;;;;0.10;0.10;;;;;;;14.42;100.00;100374.72;5113991;28;20020;-47
2023/08/30 09:30:04;;;;;;;0.10;0.10;;;;;;;14.40;100.00;100380.75;5115291;27;20038;-46
2023/08/30 09:32:29;;;;;;;0.10;0.10;;;;;;;14.34;100.00;100386.75;5114903;28;20034;-45
2023/08/30 09:34:55;;;;;;;0.00;0.00;;;;;;;14.29;100.00;100383.28;5114335;28;20023;-44
2023/08/30 09:37:23;;;;;;;0.10;0.10;;;;;;;14.32;100.00;100383.31;5114737;28;20035;-45
2023/08/30 09:39:49;;;;;;;0.10;0.10;;;;;;;14.22;100.00;100381.50;5114742;28;20489;-48
2023/08/30 09:42:17;;;;;;;0.10;0.10;;;;;;;14.22;100.00;100381.50;5114024;28;20024;-48
2023/08/30 09:44:43;;;;;;;0.10;0.10;;;;;;;14.37;100.00;100380.72;5114972;28;20110;-49
2023/08/30 09:47:08;;;;;;;0.10;0.10;;;;;;;14.52;100.00;100379.97;5114705;28;20490;-49
2023/08/30 09:49:42;;;;;;;0.03;0.03;;;;;;;14.56;100.00;100381.72;5113541;28;20043;-49
2023/08/30 09:52:08;;;;;;;0.10;0.10;;;;;;;14.55;100.00;100387.75;5114559;28;20370;-46
2023/08/30 09:54:35;;;;;;;0.10;0.10;;;;;;;14.61;100.00;100382.59;5114090;28;20487;-49
2023/08/30 09:57:01;;;;;;;0.10;0.10;;;;;;;14.99;100.00;100376.78;5114066;28;20099;-49
2023/08/30 09:59:28;;;;;;;0.10;0.10;;;;;;;15.07;100.00;100369.88;5114038;28;20083;-45
2023/08/30 10:01:54;;;;;;;0.10;0.10;;;;;;;15.36;100.00;100379.47;5113645;28;20519;-49
2023/08/30 10:04:20;;;;;;;0.10;0.10;;;;;;;15.58;100.00;100383.00;5114266;28;20024;-45
2023/08/30 10:06:47;;;;;;;0.10;0.10;;;;;;;16.13;100.00;100381.31;5114537;28;20531;-48
2023/08/30 10:09:14;;;;;;;0.00;0.00;;;;;;;16.21;100.00;100378.69;5113209;28;20491;-46
2023/08/30 10:11:39;;;;;;;0.10;0.10;;;;;;;16.57;100.00;100380.34;5114108;28;20379;-49
2023/08/30 10:14:06;;;;;;;0.10;0.10;;;;;;;17.11;100.00;100372.38;5114376;28;20027;-47
2023/08/30 10:16:43;;;;;;;0.10;0.10;;;;;;;17.68;100.00;100371.16;5113143;27;20285;-49
2023/08/30 10:19:20;;;;;;;0.08;0.08;;;;;;;18.32;100.00;100363.69;5114250;28;20028;-46
2023/08/30 10:21:58;;;;;;;0.00;0.00;;;;;;;18.53;100.00;100359.97;5114243;28;20032;-48
2023/08/30 10:24:24;;;;;;;0.00;0.00;;;;;;;18.97;100.00;100362.97;5112466;28;20043;-48
2023/08/30 10:26:50;;;;;;;0.10;0.10;;;;;;;19.36;100.00;100363.31;5114132;28;20096;-46
2023/08/30 10:29:17;;;;;;;0.00;0.00;;;;;;;19.51;100.00;100369.19;5114011;28;20028;-48
2023/08/30 10:31:43;;;;;;;0.00;0.00;;;;;;;19.57;100.00;100356.91;5113212;28;20034;-46
2023/08/30 10:34:16;;;;;;;0.00;0.00;;;;;;;19.89;100.00;100365.13;5113853;28;20028;-49
2023/08/30 10:36:43;;;;;;;0.10;0.10;;;;;;;19.64;100.00;100360.28;5113922;28;20028;-50
2023/08/30 10:39:13;;;;;;;0.00;0.00;;;;;;;19.41;98.63;100353.66;5113054;27;20015;-44
2023/08/30 10:41:53;;;;;;;0.00;0.00;;;;;;;19.03;100.00;100356.78;5113745;28;20031;-49
2023/08/30 10:44:21;;;;;;;0.00;0.00;;;;;;;18.18;100.00;100352.50;5112671;28;20019;-48
2023/08/30 10:46:55;;;;;;;0.00;0.00;;;;;;;17.57;100.00;100349.53;5113871;28;20023;-50
2023/08/30 10:49:21;;;;;;;0.00;0.00;;;;;;;17.27;100.00;100354.06;5113423;28;20020;-48
2023/08/30 10:51:56;;;;;;;0.00;0.00;;;;;;;16.98;100.00;100355.09;5112988;28;20098;-44
2023/08/30 10:54:23;;;;;;;0.00;0.00;;;;;;;17.08;100.00;100353.28;5113205;28;20046;-49
2023/08/30 10:56:56;;;;;;;0.00;0.00;;;;;;;17.83;100.00;100354.56;5113419;28;20502;-45
2023/08/30 10:59:23;;;;;;;0.10;0.10;;;;;;;17.70;100.00;100356.38;5112395;28;20047;-49
2023/08/30 11:01:49;;;;;;;0.10;0.10;;;;;;;17.45;100.00;100353.09;5113597;28;20018;-50
2023/08/30 11:04:16;;;;;;;0.03;0.03;;;;;;;17.27;100.00;100348.84;5113219;28;20027;-49
2023/08/30 11:06:46;;;;;;;0.10;0.10;;;;;;;17.04;100.00;100344.66;5112718;28;20026;-46
2023/08/30 11:09:23;;;;;;;0.10;0.10;;;;;;;17.11;100.00;100359.34;5113073;28;20520;-47
2023/08/30 11:11:49;;;;;;;0.08;0.08;;;;;;;18.06;100.00;100350.88;5113550;28;20035;-51
2023/08/30 11:14:16;;;;;;;0.00;0.00;;;;;;;19.04;100.00;100348.97;5112454;28;20024;-48
2023/08/30 11:16:41;;;;;;;0.10;0.10;;;;;;;19.22;97.25;100354.81;5113272;28;20023;-45
2023/08/30 11:19:08;;;;;;;0.03;0.03;;;;;;;19.70;96.89;100354.97;5113145;28;20023;-47